Time;durP1;ratioP1;P1;durP2;ratioP2;P2;SDS_P1;SDS_P2;PMS_P1;PMS_P2;Temp;Humidity;BMP_temperature;BMP_pressure;BME280_temperature;BME280_humidity;BME280_pressure;Samples;Min_cycle;Max_cycle;Signal;HPM_P1;HPM_P2
2023/07/08 08:01:21;;;;;;;2.93;2.63;;;24.30;93.50;;;;;;4966309;28;21136;-83
2023/07/08 08:07:24;;;;;;;4.57;2.83;;;24.30;93.50;;;;;;4971112;28;20977;-82
2023/07/08 08:09:51;;;;;;;3.00;2.53;;;24.30;93.30;;;;;;4977024;28;20435;-80
2023/07/08 08:12:22;;;;;;;3.50;2.80;;;24.40;93.30;;;;;;4982907;28;20445;-81
2023/07/08 08:14:49;;;;;;;3.83;2.23;;;24.30;93.00;;;;;;4977848;28;20450;-82
2023/07/08 08:17:15;;;;;;;3.97;2.27;;;24.40;93.20;;;;;;4975209;28;20451;-84
2023/07/08 08:19:42;;;;;;;4.13;2.53;;;24.40;93.10;;;;;;4975939;28;20439;-81
2023/07/08 08:22:10;;;;;;;3.67;2.47;;;24.40;93.20;;;;;;4976715;28;20449;-91
2023/07/08 08:24:56;;;;;;;3.80;2.90;;;24.50;93.80;;;;;;4977446;28;20448;-92
2023/07/08 08:27:23;;;;;;;3.87;2.53;;;24.40;93.70;;;;;;4974486;28;20571;-89
2023/07/08 08:29:51;;;;;;;3.50;2.80;;;24.40;93.60;;;;;;4976029;28;20466;-89
2023/07/08 15:22:45;;;;;;;2.27;1.90;;;24.90;94.00;;;;;;4961652;28;20489;-81
2023/07/08 15:25:14;;;;;;;2.17;1.70;;;25.00;94.00;;;;;;4958104;29;20524;-86
2023/07/08 15:27:44;;;;;;;2.23;1.80;;;25.00;93.80;;;;;;4958251;29;20450;-86
2023/07/08 15:30:17;;;;;;;2.30;2.07;;;24.90;94.00;;;;;;4957765;29;20442;-80
2023/07/08 15:32:45;;;;;;;4.17;2.17;;;25.00;94.00;;;;;;4956628;29;20458;-81
2023/07/08 15:35:14;;;;;;;3.77;1.97;;;25.00;94.10;;;;;;4956873;29;20457;-82
2023/07/08 15:37:42;;;;;;;5.70;1.90;;;25.00;94.10;;;;;;4957372;29;20462;-82
2023/07/08 15:40:13;;;;;;;3.20;1.80;;;24.90;94.10;;;;;;4957306;29;20452;-82
2023/07/08 15:42:41;;;;;;;2.30;2.03;;;25.00;94.00;;;;;;4957262;29;20474;-82
2023/07/08 15:47:55;;;;;;;4.90;2.30;;;25.00;94.30;;;;;;4957240;29;20464;-82
2023/07/08 15:50:27;;;;;;;3.93;2.30;;;25.00;94.40;;;;;;4955424;28;20454;-81
2023/07/08 15:52:55;;;;;;;2.37;2.17;;;25.00;94.30;;;;;;4956435;28;20916;-81
2023/07/08 15:55:26;;;;;;;4.17;2.33;;;25.00;94.50;;;;;;4955732;29;21273;-81
2023/07/08 15:57:56;;;;;;;3.50;2.40;;;25.00;94.30;;;;;;4955698;29;20451;-83
2023/07/08 16:00:24;;;;;;;5.33;2.90;;;25.20;94.40;;;;;;4955454;29;20457;-80
2023/07/08 16:02:54;;;;;;;3.43;2.43;;;25.00;94.40;;;;;;4957282;29;20446;-80
2023/07/08 16:05:22;;;;;;;4.50;2.77;;;25.00;94.40;;;;;;4956662;29;20452;-81
2023/07/08 16:07:51;;;;;;;3.50;2.00;;;25.00;94.50;;;;;;4957215;29;20621;-81
2023/07/08 16:10:18;;;;;;;7.33;2.90;;;25.00;94.40;;;;;;4956949;29;20965;-81
2023/07/08 16:12:48;;;;;;;4.97;2.50;;;25.00;94.50;;;;;;4957189;29;20457;-81
2023/07/08 16:15:16;;;;;;;4.10;2.90;;;25.00;94.60;;;;;;4956897;29;20441;-81
2023/07/08 16:17:44;;;;;;;3.30;2.23;;;25.00;94.50;;;;;;4958512;29;20450;-96
2023/07/08 16:20:18;;;;;;;6.77;2.67;;;25.00;94.70;;;;;;4957514;29;20453;-94
2023/07/08 16:22:45;;;;;;;4.40;2.47;;;25.00;94.80;;;;;;4957741;28;20832;-93
2023/07/08 16:25:13;;;;;;;4.67;2.20;;;25.00;94.70;;;;;;4958056;29;20967;-93
2023/07/08 16:27:41;;;;;;;3.23;2.13;;;25.00;94.90;;;;;;4958031;29;20457;-94
2023/07/08 16:30:14;;;;;;;3.57;2.53;;;25.00;94.90;;;;;;4958109;29;20462;-93
2023/07/08 16:32:41;;;;;;;6.90;2.60;;;25.00;95.00;;;;;;4958911;29;20450;-92
2023/07/08 16:35:10;;;;;;;5.03;2.87;;;25.00;95.00;;;;;;4958824;29;20456;-93
2023/07/08 16:37:37;;;;;;;7.33;3.30;;;25.00;95.00;;;;;;4957272;29;20472;-82
2023/07/08 16:40:06;;;;;;;3.77;2.30;;;25.00;94.90;;;;;;4956819;29;20457;-82
2023/07/08 16:42:33;;;;;;;5.40;2.57;;;25.00;94.70;;;;;;4956445;29;20534;-82
2023/07/08 16:45:00;;;;;;;5.67;3.00;;;25.00;94.70;;;;;;4956469;29;20492;-88
2023/07/08 16:47:28;;;;;;;5.70;2.73;;;25.00;94.70;;;;;;4956489;29;20460;-81
2023/07/08 16:49:55;;;;;;;3.07;2.13;;;25.00;94.70;;;;;;4956733;29;20440;-82
2023/07/08 16:52:22;;;;;;;4.07;2.70;;;25.00;94.60;;;;;;4956435;29;20463;-82
2023/07/08 16:54:48;;;;;;;5.33;2.50;;;25.00;94.60;;;;;;4956762;29;20796;-82
2023/07/08 16:57:15;;;;;;;2.53;2.23;;;25.00;94.70;;;;;;4956362;29;20859;-82
2023/07/08 16:59:42;;;;;;;3.40;2.43;;;25.00;94.70;;;;;;4956371;29;20532;-82
2023/07/08 17:02:13;;;;;;;2.80;1.77;;;25.00;94.60;;;;;;4955894;28;20438;-82
2023/07/08 17:04:41;;;;;;;2.73;2.13;;;25.00;94.50;;;;;;4956644;29;20519;-82
2023/07/08 17:07:10;;;;;;;3.10;2.07;;;25.00;94.50;;;;;;4956107;29;20447;-81
2023/07/08 17:09:37;;;;;;;2.90;2.70;;;25.00;94.40;;;;;;4956241;29;20450;-82
2023/07/08 17:12:06;;;;;;;2.50;2.00;;;25.00;94.30;;;;;;4956200;29;20446;-82
2023/07/08 17:14:33;;;;;;;4.20;2.50;;;25.00;94.30;;;;;;4955941;29;20995;-82
2023/07/08 17:17:00;;;;;;;2.90;2.60;;;25.00;94.20;;;;;;4955310;29;20452;-83
2023/07/08 17:19:27;;;;;;;5.60;3.17;;;25.00;94.30;;;;;;4955202;28;20218;-83
2023/07/08 17:21:55;;;;;;;4.30;2.47;;;25.00;94.30;;;;;;4955731;28;20502;-82
2023/07/08 17:24:22;;;;;;;2.90;2.50;;;25.00;94.30;;;;;;4955979;29;20534;-83
2023/07/08 17:26:50;;;;;;;3.07;2.13;;;25.00;94.30;;;;;;4956299;29;20460;-85
2023/07/08 17:29:16;;;;;;;5.23;2.73;;;25.00;94.40;;;;;;4952689;29;20455;-85
2023/07/08 17:31:44;;;;;;;5.60;2.07;;;25.00;95.10;;;;;;4956828;29;20530;-86
2023/07/08 17:34:20;;;;;;;3.23;2.03;;;25.00;94.70;;;;;;4956214;29;20490;-85
2023/07/08 17:36:47;;;;;;;4.00;2.40;;;25.00;94.70;;;;;;4938752;29;20451;-85
2023/07/08 17:39:15;;;;;;;3.33;2.57;;;25.00;94.70;;;;;;4955948;28;20448;-84
2023/07/08 17:41:43;;;;;;;4.53;2.30;;;25.00;94.70;;;;;;4956052;29;20797;-84
2023/07/08 17:44:11;;;;;;;4.40;2.10;;;25.00;94.60;;;;;;4955950;29;20843;-84
2023/07/08 17:46:38;;;;;;;4.27;3.27;;;25.00;94.70;;;;;;4955793;29;22540;-85
2023/07/08 17:49:09;;;;;;;6.13;2.47;;;25.00;94.40;;;;;;4955543;29;20802;-83
2023/07/08 17:51:36;;;;;;;4.93;3.40;;;25.00;94.60;;;;;;4955581;29;20446;-83
2023/07/08 17:54:03;;;;;;;4.50;2.20;;;25.00;94.70;;;;;;4941179;29;20832;-82
2023/07/08 17:56:34;;;;;;;2.80;2.60;;;25.00;94.60;;;;;;4955257;29;20455;-84
2023/07/08 21:12:12;;;;;;;2.53;2.33;;;25.00;94.10;;;;;;4882815;29;20546;-82
2023/07/08 21:14:38;;;;;;;2.83;2.63;;;25.00;93.90;;;;;;4897217;29;20449;-83
2023/07/08 21:17:13;;;;;;;2.93;2.63;;;25.00;94.10;;;;;;4948921;29;20450;-83
2023/07/08 21:19:39;;;;;;;4.00;3.40;;;25.00;93.90;;;;;;4940584;28;20473;-81
2023/07/08 21:22:06;;;;;;;3.80;2.97;;;25.00;94.10;;;;;;4955862;28;20466;-82
2023/07/08 21:24:33;;;;;;;3.23;2.90;;;25.00;94.10;;;;;;4955607;29;20486;-83
2023/07/08 21:27:00;;;;;;;4.60;2.77;;;25.00;94.10;;;;;;4955884;29;20443;-84
2023/07/08 21:29:28;;;;;;;4.90;2.87;;;25.00;94.00;;;;;;4955761;29;20956;-83
2023/07/08 21:31:55;;;;;;;2.90;2.30;;;25.00;93.90;;;;;;4956256;29;20438;-83
2023/07/08 21:34:21;;;;;;;4.17;2.60;;;25.00;93.90;;;;;;4956049;29;20442;-84
2023/07/08 21:36:49;;;;;;;2.27;2.07;;;25.00;93.90;;;;;;4955843;29;20449;-87
2023/07/08 21:39:29;;;;;;;3.07;2.70;;;25.10;93.80;;;;;;4956245;29;20442;-84
2023/07/08 21:41:55;;;;;;;3.97;2.70;;;25.00;93.80;;;;;;4956080;29;20469;-83
2023/07/08 21:44:22;;;;;;;3.50;3.17;;;25.00;93.70;;;;;;4955545;29;20489;-85
2023/07/08 21:46:50;;;;;;;2.90;2.60;;;25.00;93.80;;;;;;4955815;29;20447;-83
2023/07/08 21:49:18;;;;;;;5.47;2.33;;;25.00;93.80;;;;;;4955343;28;20442;-83
2023/07/08 21:51:45;;;;;;;3.30;2.50;;;25.00;93.80;;;;;;4955344;28;20916;-83
2023/07/08 21:54:13;;;;;;;2.83;2.30;;;25.00;93.80;;;;;;4936356;29;20450;-83
2023/07/08 21:56:40;;;;;;;2.47;2.27;;;25.10;93.80;;;;;;4944089;29;20470;-83
2023/07/08 21:59:15;;;;;;;3.90;2.60;;;25.00;93.80;;;;;;4955697;29;20445;-84
2023/07/08 22:01:43;;;;;;;3.83;3.10;;;25.10;94.00;;;;;;4937054;29;20448;-85
2023/07/08 22:04:14;;;;;;;2.90;2.60;;;25.10;93.80;;;;;;4938509;29;20577;-95
2023/07/08 22:06:41;;;;;;;2.77;2.40;;;25.10;93.90;;;;;;4939977;29;20449;-88
2023/07/08 22:09:08;;;;;;;2.47;2.27;;;25.00;93.90;;;;;;4939013;29;20455;-95
